createdAt,value
2022-08-11T00:00:31.127Z,8.00
2022-08-11T00:01:02.992Z,8.00
2022-08-11T00:01:33.565Z,8.72
2022-08-11T00:01:51.115Z,8.27
2022-08-11T00:02:23.910Z,8.27
2022-08-11T00:02:41.307Z,8.72
2022-08-11T00:03:13.291Z,8.27
2022-08-11T00:03:43.778Z,8.27
2022-08-11T00:04:00.174Z,8.72
2022-08-11T00:04:31.149Z,8.27
2022-08-11T00:05:03.222Z,8.22
2022-08-11T00:05:33.541Z,8.22
2022-08-11T00:05:51.055Z,8.61
2022-08-11T00:06:23.373Z,8.61
2022-08-11T00:06:41.466Z,8.61
2022-08-11T00:07:11.112Z,8.22
2022-08-11T00:07:43.666Z,8.22
2022-08-11T00:07:59.247Z,8.22
2022-08-11T00:08:31.845Z,8.61
2022-08-11T00:09:03.023Z,8.61
2022-08-11T00:09:39.026Z,8.61
2022-08-11T00:09:51.150Z,8.61
2022-08-11T00:10:22.984Z,8.50
2022-08-11T00:10:41.097Z,8.11
2022-08-11T00:11:11.353Z,8.50
2022-08-11T00:11:34.368Z,8.50
2022-08-11T00:12:00.170Z,8.50
2022-08-11T00:12:31.969Z,8.50
2022-08-11T00:13:03.450Z,8.50
2022-08-11T00:13:35.855Z,8.50
2022-08-11T00:14:07.027Z,8.38
2022-08-11T00:14:37.456Z,8.38
2022-08-11T00:14:55.047Z,8.38
2022-08-11T00:15:27.211Z,8.72
2022-08-11T00:15:59.518Z,8.38
2022-08-11T00:16:30.996Z,8.72
2022-08-11T00:17:03.087Z,8.61
2022-08-11T00:17:33.478Z,8.61
2022-08-11T00:17:51.005Z,8.61
2022-08-11T00:18:23.054Z,8.27
2022-08-11T00:18:41.197Z,8.27
2022-08-11T00:19:11.048Z,8.22
2022-08-11T00:20:14.564Z,8.22
2022-08-11T00:20:31.243Z,8.61
2022-08-11T00:21:03.761Z,8.50
2022-08-11T00:22:04.018Z,8.22
2022-08-11T00:22:23.011Z,8.27
2022-08-11T00:22:41.841Z,8.61
2022-08-11T00:23:11.097Z,8.50
2022-08-11T00:23:33.516Z,8.27
2022-08-11T00:23:59.123Z,8.61
2022-08-11T00:24:31.252Z,8.61
2022-08-11T00:25:03.054Z,8.61
2022-08-11T00:25:33.484Z,8.61
2022-08-11T00:25:52.758Z,8.61
2022-08-11T00:26:23.034Z,8.27
2022-08-11T00:26:40.475Z,8.27
2022-08-11T00:27:14.325Z,8.61
2022-08-11T00:27:33.486Z,8.27
2022-08-11T00:27:59.150Z,8.27
2022-08-11T00:28:30.990Z,8.27
2022-08-11T00:29:03.673Z,8.61
2022-08-11T00:29:34.423Z,8.27
2022-08-11T00:29:52.056Z,8.27
2022-08-11T00:30:24.161Z,8.61
2022-08-11T00:30:41.316Z,8.27
2022-08-11T00:31:12.200Z,8.27
2022-08-11T00:31:33.521Z,8.61
2022-08-11T00:31:59.094Z,8.27
2022-08-11T00:32:32.072Z,8.27
2022-08-11T00:33:03.039Z,8.27
2022-08-11T00:33:44.073Z,8.27
2022-08-11T00:33:51.010Z,8.27
2022-08-11T00:34:22.972Z,8.72
2022-08-11T00:34:40.948Z,8.38
2022-08-11T00:35:53.887Z,8.72
2022-08-11T00:36:14.967Z,8.38
2022-08-11T00:36:33.502Z,8.72
2022-08-11T00:37:04.030Z,8.72
2022-08-11T00:37:34.064Z,9.00
2022-08-11T00:37:51.034Z,8.72
2022-08-11T00:38:23.986Z,8.00
2022-08-11T00:38:41.168Z,8.00
2022-08-11T00:39:11.891Z,8.38
2022-08-11T00:39:33.535Z,8.50
2022-08-11T00:39:59.153Z,8.11
2022-08-11T00:40:31.002Z,8.50
2022-08-11T00:41:03.007Z,8.50
2022-08-11T00:41:34.257Z,8.50
2022-08-11T00:41:54.554Z,8.50
2022-08-11T00:42:23.327Z,8.50
2022-08-11T00:42:40.667Z,8.50
2022-08-11T00:43:11.563Z,8.50
2022-08-11T00:43:33.455Z,8.38
2022-08-11T00:43:59.087Z,8.72
2022-08-11T00:44:31.150Z,8.72
2022-08-11T00:45:04.084Z,8.61
2022-08-11T00:45:33.478Z,8.61
2022-08-11T00:45:50.832Z,8.50
2022-08-11T00:46:22.992Z,8.50
2022-08-11T00:46:40.499Z,8.50
2022-08-11T00:47:11.177Z,8.22
2022-08-11T00:47:33.484Z,8.22
2022-08-11T00:48:00.393Z,8.22
2022-08-11T00:48:31.037Z,8.61
2022-08-11T00:49:02.916Z,8.61
2022-08-11T00:49:33.500Z,8.61
2022-08-11T00:49:50.960Z,8.61
2022-08-11T00:50:22.932Z,8.50
2022-08-11T00:50:40.443Z,8.50
2022-08-11T00:51:11.166Z,8.50
2022-08-11T00:51:57.664Z,8.50
2022-08-11T00:52:15.029Z,8.38
2022-08-11T00:52:33.501Z,8.38
2022-08-11T00:53:03.924Z,8.38
2022-08-11T00:53:33.483Z,8.27
2022-08-11T00:53:52.090Z,8.27
2022-08-11T00:54:23.802Z,8.00
2022-08-11T00:54:40.890Z,8.00
2022-08-11T00:55:12.884Z,8.27
2022-08-11T00:55:34.347Z,8.27
2022-08-11T00:55:59.017Z,8.50
2022-08-11T00:56:30.949Z,8.50
2022-08-11T00:57:02.935Z,8.50
2022-08-11T00:57:51.967Z,8.50
2022-08-11T00:58:23.933Z,8.50
2022-08-11T00:58:41.150Z,8.38
2022-08-11T00:59:34.429Z,8.38
2022-08-11T00:59:42.942Z,8.38
2022-08-11T01:00:15.066Z,8.72
2022-08-11T01:00:33.559Z,8.27
2022-08-11T01:01:03.054Z,8.27
2022-08-11T01:01:33.452Z,8.61
2022-08-11T01:01:51.923Z,8.27
2022-08-11T01:02:23.122Z,8.27
2022-08-11T01:02:41.152Z,8.27
2022-08-11T01:03:11.896Z,8.61
2022-08-11T01:03:33.457Z,8.50
2022-08-11T01:03:59.115Z,8.50
2022-08-11T01:04:31.625Z,8.50
2022-08-11T01:05:02.972Z,8.50
2022-08-11T01:05:34.762Z,8.50
2022-08-11T01:06:08.221Z,8.38
2022-08-11T01:06:34.341Z,8.38
2022-08-11T01:06:54.910Z,8.38
2022-08-11T01:08:01.787Z,8.38
2022-08-11T01:08:14.953Z,8.38
2022-08-11T01:08:33.458Z,8.38
2022-08-11T01:09:03.011Z,8.11
2022-08-11T01:09:34.144Z,8.38
2022-08-11T01:09:51.366Z,8.38
2022-08-11T01:10:22.887Z,8.38
2022-08-11T01:10:41.122Z,8.38
2022-08-11T01:11:11.072Z,8.38
2022-08-11T01:11:33.780Z,8.38
2022-08-11T01:11:59.102Z,8.38
2022-08-11T01:12:30.953Z,8.38
2022-08-11T01:13:03.278Z,8.38
2022-08-11T01:13:33.477Z,8.38
2022-08-11T01:13:50.933Z,8.38
2022-08-11T01:14:34.583Z,8.11
2022-08-11T01:14:42.194Z,8.38
2022-08-11T01:15:11.257Z,8.38
2022-08-11T01:15:33.538Z,8.38
2022-08-11T01:15:59.067Z,8.11
2022-08-11T01:16:30.907Z,8.38
2022-08-11T01:17:02.892Z,8.38
2022-08-11T01:17:33.477Z,8.38
2022-08-11T01:17:50.965Z,8.38
2022-08-11T01:18:23.008Z,8.38
2022-08-11T01:18:41.017Z,8.38
2022-08-11T01:19:14.323Z,8.72
2022-08-11T01:19:33.459Z,8.72
2022-08-11T01:21:03.820Z,8.27
2022-08-11T01:21:35.390Z,8.27
2022-08-11T01:22:06.954Z,8.61
2022-08-11T01:22:33.788Z,8.38
2022-08-11T01:22:54.907Z,8.38
2022-08-11T01:23:27.716Z,8.38
2022-08-11T01:23:59.021Z,8.38
2022-08-11T01:24:31.794Z,8.38
2022-08-11T01:25:03.488Z,8.38
2022-08-11T01:25:33.416Z,8.38
2022-08-11T01:26:06.938Z,8.38
2022-08-11T01:26:33.436Z,8.38
2022-08-11T01:26:54.876Z,8.38
2022-08-11T01:27:27.874Z,8.72
2022-08-11T01:28:00.184Z,8.72
2022-08-11T01:28:30.928Z,8.38
2022-08-11T01:29:02.849Z,8.27
2022-08-11T01:29:33.457Z,8.27
2022-08-11T01:29:50.939Z,8.61
2022-08-11T01:30:23.027Z,8.27
2022-08-11T01:30:40.700Z,8.27
2022-08-11T01:31:11.220Z,8.27
2022-08-11T01:31:34.884Z,8.61
2022-08-11T01:31:58.898Z,8.61
2022-08-11T01:32:30.944Z,8.61
2022-08-11T01:33:02.894Z,8.50
2022-08-11T01:33:35.468Z,8.50
2022-08-11T01:34:06.921Z,8.50
2022-08-11T01:34:33.430Z,8.50
2022-08-11T01:34:54.928Z,8.50
2022-08-11T01:35:26.945Z,8.50
2022-08-11T01:35:58.921Z,8.38
2022-08-11T01:36:30.919Z,8.50
2022-08-11T01:37:02.908Z,8.50
2022-08-11T01:37:33.452Z,8.50
2022-08-11T01:37:50.842Z,8.50
2022-08-11T01:38:22.872Z,8.50
2022-08-11T01:38:41.013Z,8.50
2022-08-11T01:39:11.097Z,8.77
2022-08-11T01:39:34.367Z,8.50
2022-08-11T01:40:00.042Z,8.50
2022-08-11T01:40:31.489Z,8.50
2022-08-11T01:41:02.919Z,8.50
2022-08-11T01:41:33.490Z,8.50
2022-08-11T01:41:50.895Z,8.50
2022-08-11T01:42:23.773Z,8.50
2022-08-11T01:42:42.833Z,8.50
2022-08-11T01:43:10.972Z,8.50
2022-08-11T01:43:34.298Z,8.77
2022-08-11T01:43:58.869Z,8.38
2022-08-11T01:44:31.071Z,8.38
2022-08-11T01:45:02.947Z,8.38
2022-08-11T01:45:34.156Z,8.38
2022-08-11T01:46:06.514Z,8.50
2022-08-11T01:46:23.794Z,8.50
2022-08-11T01:46:41.041Z,8.50
2022-08-11T01:47:11.192Z,8.61
2022-08-11T01:47:33.932Z,8.61
2022-08-11T01:47:58.944Z,8.61
2022-08-11T01:48:30.857Z,8.61
2022-08-11T01:50:05.974Z,8.50
2022-08-11T01:50:22.963Z,8.50
2022-08-11T01:50:40.815Z,8.50
2022-08-11T01:51:14.853Z,8.50
2022-08-11T01:51:33.493Z,8.50
2022-08-11T01:51:59.032Z,8.50
2022-08-11T01:52:34.690Z,8.61
2022-08-11T01:53:02.887Z,8.61
2022-08-11T01:53:33.455Z,8.27
2022-08-11T01:53:50.985Z,8.72
2022-08-11T01:54:22.931Z,8.72
2022-08-11T01:54:40.459Z,8.72
2022-08-11T01:55:10.992Z,8.72
2022-08-11T01:55:33.969Z,8.38
2022-08-11T01:56:00.175Z,8.72
2022-08-11T01:56:30.891Z,8.72
2022-08-11T01:57:02.879Z,8.38
2022-08-11T01:57:35.504Z,8.38
2022-08-11T01:58:06.898Z,8.38
2022-08-11T01:58:40.730Z,8.38
2022-08-11T01:58:54.894Z,8.77
2022-08-11T01:59:26.978Z,8.77
2022-08-11T02:00:00.418Z,8.77
2022-08-11T02:00:30.985Z,8.72
2022-08-11T02:01:03.608Z,8.72
2022-08-11T02:01:33.452Z,8.72
2022-08-11T02:01:50.750Z,8.61
2022-08-11T02:02:22.747Z,8.72
2022-08-11T02:02:40.371Z,8.72
2022-08-11T02:03:10.980Z,8.72
2022-08-11T02:03:33.482Z,8.72
2022-08-11T02:04:01.046Z,8.88
2022-08-11T02:04:31.747Z,8.61
2022-08-11T02:05:02.867Z,8.61
2022-08-11T02:05:33.448Z,8.61
2022-08-11T02:05:51.726Z,8.61
2022-08-11T02:06:22.876Z,8.61
2022-08-11T02:06:41.516Z,8.27
2022-08-11T02:07:11.306Z,8.38
2022-08-11T02:07:33.495Z,8.77
2022-08-11T02:07:58.860Z,8.77
2022-08-11T02:08:33.150Z,8.77
2022-08-11T02:09:02.894Z,8.72
2022-08-11T02:09:33.486Z,8.72
2022-08-11T02:09:51.914Z,8.72
2022-08-11T02:10:22.878Z,8.72
2022-08-11T02:10:40.994Z,8.72
2022-08-11T02:11:12.797Z,8.72
2022-08-11T02:11:35.861Z,8.72
2022-08-11T02:12:00.186Z,8.72
2022-08-11T02:12:30.849Z,8.72
2022-08-11T02:13:03.194Z,8.72
2022-08-11T02:13:36.713Z,8.72
2022-08-11T02:14:06.873Z,8.72
2022-08-11T02:14:34.274Z,8.72
2022-08-11T02:15:05.381Z,8.72
2022-08-11T02:15:26.993Z,8.72
2022-08-11T02:16:00.377Z,8.72
2022-08-11T02:16:31.800Z,8.72
2022-08-11T02:17:02.845Z,9.00
2022-08-11T02:17:33.622Z,8.61
2022-08-11T02:17:50.865Z,8.61
2022-08-11T02:18:22.920Z,8.61
2022-08-11T02:18:40.443Z,8.61
2022-08-11T02:19:11.845Z,8.61
2022-08-11T02:19:33.662Z,8.88
2022-08-11T02:20:00.069Z,8.88
2022-08-11T02:20:30.846Z,8.88
2022-08-11T02:21:03.653Z,8.61
2022-08-11T02:21:33.426Z,8.61
2022-08-11T02:21:50.888Z,8.88
2022-08-11T02:22:22.865Z,8.61
2022-08-11T02:22:40.764Z,8.72
2022-08-11T02:23:11.002Z,8.72
2022-08-11T02:24:05.835Z,8.72
2022-08-11T02:24:14.919Z,8.77
2022-08-11T02:24:33.462Z,8.77
2022-08-11T02:25:03.837Z,8.77
2022-08-11T02:25:33.523Z,8.77
2022-08-11T02:25:50.901Z,8.77
2022-08-11T02:26:24.386Z,8.77
2022-08-11T02:26:41.580Z,8.77
2022-08-11T02:27:11.370Z,8.72
2022-08-11T02:27:33.487Z,8.72
2022-08-11T02:27:58.942Z,8.72
2022-08-11T02:28:31.852Z,9.00
2022-08-11T02:29:02.809Z,8.72
2022-08-11T02:29:33.441Z,9.00
2022-08-11T02:29:50.871Z,8.61
2022-08-11T02:30:22.897Z,8.88
2022-08-11T02:30:40.882Z,8.61
2022-08-11T02:31:11.097Z,8.61
2022-08-11T02:32:31.716Z,8.72
2022-08-11T02:33:02.898Z,9.00
2022-08-11T02:33:36.552Z,9.00
2022-08-11T02:34:08.002Z,9.00
2022-08-11T02:34:33.559Z,9.00
2022-08-11T02:34:59.864Z,8.61
2022-08-11T02:35:26.961Z,8.88
2022-08-11T02:35:58.925Z,8.88
2022-08-11T02:36:32.570Z,8.88
2022-08-11T02:37:02.965Z,8.88
2022-08-11T02:37:33.497Z,8.88
2022-08-11T02:37:50.834Z,8.61
2022-08-11T02:38:22.870Z,8.88
2022-08-11T02:38:40.498Z,9.22
2022-08-11T02:39:11.989Z,8.61
2022-08-11T02:39:34.358Z,8.61
2022-08-11T02:39:59.019Z,8.61
2022-08-11T02:40:31.912Z,8.88
2022-08-11T02:41:02.849Z,8.88
2022-08-11T02:41:34.174Z,8.88
2022-08-11T02:41:50.963Z,8.88
2022-08-11T02:42:32.799Z,8.77
2022-08-11T02:42:40.593Z,8.77
2022-08-11T02:43:11.061Z,8.77
2022-08-11T02:43:33.493Z,8.77
2022-08-11T02:44:00.128Z,8.77
2022-08-11T02:44:31.721Z,8.77
2022-08-11T02:45:02.984Z,8.77
2022-08-11T02:45:34.120Z,9.11
2022-08-11T02:45:50.668Z,9.11
2022-08-11T02:46:22.860Z,8.77
2022-08-11T02:46:41.476Z,8.77
2022-08-11T02:47:10.946Z,8.77
2022-08-11T02:47:33.622Z,8.77
2022-08-11T02:47:58.868Z,8.77
2022-08-11T02:48:30.867Z,8.77
2022-08-11T02:49:02.901Z,8.77
2022-08-11T02:49:33.791Z,8.77
2022-08-11T02:50:02.791Z,8.88
2022-08-11T02:50:23.901Z,8.77
2022-08-11T02:50:40.479Z,8.77
2022-08-11T02:51:10.962Z,9.11
2022-08-11T02:51:33.443Z,8.77
2022-08-11T02:51:58.823Z,9.11
2022-08-11T02:52:30.866Z,9.11
2022-08-11T02:53:02.779Z,9.00
2022-08-11T02:53:34.768Z,9.00
2022-08-11T02:54:07.844Z,8.88
2022-08-11T02:54:33.484Z,8.88
2022-08-11T02:54:54.750Z,8.88
2022-08-11T02:55:48.871Z,8.77
2022-08-11T02:56:00.179Z,8.77
2022-08-11T02:56:30.860Z,8.77
2022-08-11T02:57:04.328Z,8.77
2022-08-11T02:57:33.465Z,8.77
2022-08-11T02:57:50.868Z,8.50
2022-08-11T02:58:27.129Z,8.77
2022-08-11T02:58:41.044Z,8.77
2022-08-11T02:59:10.961Z,8.61
2022-08-11T02:59:33.474Z,8.61
2022-08-11T02:59:59.963Z,8.88
2022-08-11T03:00:30.933Z,8.88
2022-08-11T03:01:03.801Z,8.88
2022-08-11T03:01:33.579Z,8.61
2022-08-11T03:01:51.781Z,8.88
2022-08-11T03:02:22.869Z,8.88
2022-08-11T03:02:41.393Z,8.88
2022-08-11T03:03:10.972Z,8.88
2022-08-11T03:03:34.269Z,8.61
2022-08-11T03:03:58.834Z,8.88
2022-08-11T03:04:37.345Z,8.88
2022-08-11T03:05:02.860Z,8.77
2022-08-11T03:05:33.483Z,8.77
2022-08-11T03:05:50.804Z,8.77
2022-08-11T03:06:22.934Z,9.11
2022-08-11T03:06:40.495Z,9.11
2022-08-11T03:07:28.811Z,9.11
2022-08-11T03:07:33.471Z,8.72
2022-08-11T03:07:58.848Z,9.00
2022-08-11T03:08:30.866Z,8.72
2022-08-11T03:09:03.851Z,8.72
2022-08-11T03:09:33.475Z,9.00
2022-08-11T03:09:50.825Z,9.00
2022-08-11T03:10:24.720Z,8.72
2022-08-11T03:10:41.977Z,9.00
2022-08-11T03:11:12.831Z,9.00
2022-08-11T03:11:36.983Z,8.72
2022-08-11T03:11:59.107Z,9.00
2022-08-11T03:12:30.815Z,9.00
2022-08-11T03:13:03.233Z,8.72
2022-08-11T03:13:33.487Z,8.72
2022-08-11T03:13:50.824Z,8.72
2022-08-11T03:14:22.883Z,8.38
2022-08-11T03:14:40.519Z,8.38
2022-08-11T03:15:11.993Z,8.77
2022-08-11T03:15:33.581Z,8.77
2022-08-11T03:15:58.618Z,8.77
2022-08-11T03:16:30.891Z,9.11
2022-08-11T03:17:02.936Z,8.72
2022-08-11T03:17:33.472Z,9.00
2022-08-11T03:17:51.809Z,8.72
2022-08-11T03:18:22.783Z,9.00
2022-08-11T03:18:40.321Z,9.00
2022-08-11T03:19:11.898Z,9.00
2022-08-11T03:19:33.478Z,9.00
2022-08-11T03:19:59.002Z,8.88
2022-08-11T03:20:33.217Z,8.88
2022-08-11T03:21:02.832Z,8.61
2022-08-11T03:21:52.318Z,8.61
2022-08-11T03:22:11.667Z,8.88
2022-08-11T03:22:34.426Z,8.61
2022-08-11T03:22:54.746Z,8.88
2022-08-11T03:23:26.854Z,8.88
2022-08-11T03:23:58.786Z,8.88
2022-08-11T03:24:31.125Z,8.88
2022-08-11T03:25:02.742Z,8.77
2022-08-11T03:25:33.521Z,8.77
2022-08-11T03:25:50.890Z,8.77
2022-08-11T03:26:22.884Z,8.77
2022-08-11T03:26:42.083Z,8.77
2022-08-11T03:27:11.379Z,8.77
2022-08-11T03:27:35.790Z,8.77
2022-08-11T03:28:00.024Z,8.72
2022-08-11T03:28:32.012Z,8.72
2022-08-11T03:29:02.899Z,8.72
2022-08-11T03:29:34.749Z,8.72
2022-08-11T03:30:07.094Z,8.72
2022-08-11T03:30:33.476Z,9.00
2022-08-11T03:30:54.772Z,8.88
2022-08-11T03:31:26.769Z,8.72
2022-08-11T03:31:58.853Z,8.38
2022-08-11T03:32:30.892Z,8.72
2022-08-11T03:33:03.688Z,8.77
2022-08-11T03:33:33.472Z,8.77
2022-08-11T03:33:50.841Z,9.11
2022-08-11T03:34:24.868Z,9.11
2022-08-11T03:34:41.370Z,9.00
2022-08-11T03:35:10.969Z,8.88
2022-08-11T03:35:33.517Z,8.88
2022-08-11T03:35:58.814Z,8.88
2022-08-11T03:36:33.247Z,8.72
2022-08-11T03:37:16.190Z,8.72
2022-08-11T03:37:33.478Z,8.72
2022-08-11T03:37:51.351Z,8.72
2022-08-11T03:38:22.770Z,8.88
2022-08-11T03:38:40.365Z,8.88
2022-08-11T03:39:11.164Z,8.88
2022-08-11T03:39:33.559Z,8.88
2022-08-11T03:39:58.847Z,8.72
2022-08-11T03:40:30.971Z,8.88
2022-08-11T03:41:03.824Z,8.88
2022-08-11T03:42:10.056Z,8.88
2022-08-11T03:42:33.979Z,8.88
2022-08-11T03:42:55.374Z,8.88
2022-08-11T03:43:27.846Z,8.88
2022-08-11T03:44:00.885Z,8.77
2022-08-11T03:44:32.169Z,8.77
2022-08-11T03:45:02.869Z,8.77
2022-08-11T03:45:40.277Z,8.77
2022-08-11T03:46:06.810Z,8.77
2022-08-11T03:46:37.289Z,8.77
2022-08-11T03:46:54.772Z,8.77
2022-08-11T03:47:26.840Z,8.77
2022-08-11T03:48:01.227Z,8.77
2022-08-11T03:48:31.154Z,8.77
2022-08-11T03:49:02.789Z,8.77
2022-08-11T03:49:33.478Z,8.77
2022-08-11T03:49:50.837Z,8.77
2022-08-11T03:50:22.772Z,8.77
2022-08-11T03:50:40.199Z,8.77
2022-08-11T03:51:11.287Z,8.77
2022-08-11T03:51:51.594Z,8.77
2022-08-11T03:51:58.883Z,8.77
2022-08-11T03:52:30.918Z,8.77
2022-08-11T03:53:03.365Z,8.77
2022-08-11T03:53:33.470Z,8.77
2022-08-11T03:53:50.891Z,9.00
2022-08-11T03:54:23.906Z,8.77
2022-08-11T03:54:41.190Z,8.77
2022-08-11T03:55:11.067Z,8.77
2022-08-11T03:55:34.562Z,8.72
2022-08-11T03:56:00.001Z,8.72
2022-08-11T03:56:31.634Z,8.72
2022-08-11T03:57:02.930Z,9.00
2022-08-11T03:57:34.556Z,9.00
2022-08-11T03:58:07.498Z,9.00
2022-08-11T03:58:38.102Z,9.00
2022-08-11T03:58:55.835Z,8.72
2022-08-11T03:59:26.880Z,9.00
2022-08-11T03:59:58.749Z,8.72
2022-08-11T04:00:31.085Z,9.00
2022-08-11T04:01:02.851Z,9.00
2022-08-11T04:01:33.610Z,8.72
2022-08-11T04:02:06.980Z,8.72
2022-08-11T04:02:33.467Z,8.72
2022-08-11T04:02:54.751Z,8.72
2022-08-11T04:03:31.465Z,8.72
2022-08-11T04:03:58.865Z,9.00
2022-08-11T04:04:31.537Z,9.00
2022-08-11T04:05:02.852Z,9.00
2022-08-11T04:05:33.582Z,9.00
2022-08-11T04:05:51.026Z,8.61
2022-08-11T04:06:22.845Z,8.61
2022-08-11T04:06:40.599Z,8.61
2022-08-11T04:07:10.995Z,8.88
2022-08-11T04:07:33.685Z,8.88
2022-08-11T04:07:58.882Z,8.88
2022-08-11T04:08:34.412Z,8.88
2022-08-11T04:09:03.965Z,8.88
2022-08-11T04:09:33.778Z,8.88
2022-08-11T04:09:51.078Z,8.88
2022-08-11T04:10:23.081Z,8.88
2022-08-11T04:10:41.282Z,8.88
2022-08-11T04:11:12.144Z,8.77
2022-08-11T04:11:33.735Z,8.77
2022-08-11T04:11:58.779Z,8.77
2022-08-11T04:12:35.925Z,8.50
2022-08-11T04:13:09.061Z,8.77
2022-08-11T04:13:33.748Z,8.50
2022-08-11T04:13:51.260Z,8.88
2022-08-11T04:14:22.905Z,8.88
2022-08-11T04:14:41.297Z,8.88
2022-08-11T04:15:11.711Z,8.61
2022-08-11T04:15:34.794Z,8.88
2022-08-11T04:15:59.866Z,8.88
2022-08-11T04:16:31.172Z,8.61
2022-08-11T04:17:03.029Z,8.88
2022-08-11T04:17:33.703Z,8.88
2022-08-11T04:17:51.141Z,8.88
2022-08-11T04:18:24.448Z,8.88
2022-08-11T04:18:41.828Z,8.88
2022-08-11T04:19:11.553Z,8.50
2022-08-11T04:19:33.635Z,8.50
2022-08-11T04:19:58.840Z,8.77
2022-08-11T04:20:31.284Z,8.77
2022-08-11T04:21:02.936Z,8.77
2022-08-11T04:21:34.501Z,8.77
2022-08-11T04:22:06.982Z,8.72
2022-08-11T04:22:33.626Z,8.88
2022-08-11T04:22:55.682Z,8.72
2022-08-11T04:24:12.873Z,8.72
2022-08-11T04:24:50.401Z,8.72
2022-08-11T04:25:21.143Z,8.72
2022-08-11T04:25:57.842Z,8.72
2022-08-11T04:26:18.495Z,8.77
2022-08-11T04:26:34.263Z,8.77
2022-08-11T04:26:54.873Z,9.00
2022-08-11T04:27:37.094Z,8.77
2022-08-11T04:27:58.935Z,8.77
2022-08-11T04:28:31.570Z,8.77
2022-08-11T04:29:02.859Z,8.77
2022-08-11T04:29:36.437Z,8.50
2022-08-11T04:30:09.087Z,8.77
2022-08-11T04:30:33.645Z,8.77
2022-08-11T04:30:55.003Z,8.77
2022-08-11T04:31:50.301Z,8.77
2022-08-11T04:31:59.279Z,8.77
2022-08-11T04:32:31.184Z,8.50
2022-08-11T04:33:03.215Z,8.50
2022-08-11T04:33:35.069Z,8.50
2022-08-11T04:34:07.082Z,8.61
2022-08-11T04:34:33.629Z,8.61
2022-08-11T04:34:54.872Z,8.88
2022-08-11T04:35:27.960Z,8.88
2022-08-11T04:35:58.914Z,8.88
2022-08-11T04:36:31.223Z,8.77
2022-08-11T04:37:02.900Z,8.77
2022-08-11T04:37:33.715Z,8.77
2022-08-11T04:38:07.002Z,8.77
2022-08-11T04:38:33.645Z,8.77
2022-08-11T04:38:54.928Z,8.77
2022-08-11T04:39:26.845Z,8.77
2022-08-11T04:39:58.896Z,8.77
2022-08-11T04:40:31.193Z,8.77
2022-08-11T04:41:04.894Z,9.00
2022-08-11T04:41:33.621Z,8.77
2022-08-11T04:41:51.114Z,8.77
2022-08-11T04:42:24.617Z,8.72
2022-08-11T04:42:41.156Z,8.88
2022-08-11T04:43:11.338Z,8.88
2022-08-11T04:43:34.490Z,8.88
2022-08-11T04:44:04.643Z,8.88
2022-08-11T04:44:32.036Z,8.88
2022-08-11T04:45:03.177Z,8.77
2022-08-11T04:45:33.637Z,8.77
2022-08-11T04:45:51.214Z,8.61
2022-08-11T04:46:22.932Z,8.61
2022-08-11T04:46:40.623Z,8.61
2022-08-11T04:47:11.304Z,8.72
2022-08-11T04:47:33.562Z,8.72
2022-08-11T04:48:14.983Z,8.88
2022-08-11T04:48:33.622Z,8.88
2022-08-11T04:49:03.422Z,8.72
2022-08-11T04:49:36.301Z,8.72
2022-08-11T04:50:07.059Z,8.72
2022-08-11T04:50:33.628Z,8.72
2022-08-11T04:51:08.606Z,8.77
2022-08-11T04:51:26.974Z,8.77
2022-08-11T04:52:01.469Z,8.77
2022-08-11T04:52:37.985Z,8.77
2022-08-11T04:53:02.902Z,8.88
2022-08-11T04:53:33.690Z,8.88
2022-08-11T04:53:52.521Z,8.88
2022-08-11T04:54:27.774Z,9.11
2022-08-11T04:54:41.430Z,9.00
2022-08-11T04:55:11.343Z,8.77
2022-08-11T04:55:33.665Z,9.00
2022-08-11T04:55:59.055Z,8.77
2022-08-11T04:56:32.117Z,9.00
2022-08-11T04:57:03.020Z,9.00
2022-08-11T04:57:33.664Z,8.77
2022-08-11T04:57:51.150Z,8.77
2022-08-11T04:58:29.911Z,8.77
2022-08-11T04:58:43.143Z,8.50
2022-08-11T04:59:11.313Z,8.72
2022-08-11T04:59:33.646Z,8.72
2022-08-11T04:59:58.901Z,8.50
2022-08-11T05:00:31.297Z,8.50
2022-08-11T05:01:02.824Z,8.50
2022-08-11T05:01:37.192Z,8.27
2022-08-11T05:01:51.206Z,8.38
2022-08-11T05:02:23.016Z,8.77
2022-08-11T05:02:40.439Z,8.50
2022-08-11T05:03:11.290Z,8.50
2022-08-11T05:03:33.639Z,8.61
2022-08-11T05:03:59.826Z,8.61
2022-08-11T05:04:31.948Z,8.88
2022-08-11T05:05:02.909Z,8.61
2022-08-11T05:05:33.686Z,8.61
2022-08-11T05:05:56.402Z,8.61
2022-08-11T05:06:22.911Z,8.72
2022-08-11T05:06:41.388Z,8.72
2022-08-11T05:07:11.861Z,8.38
2022-08-11T05:07:34.128Z,8.38
2022-08-11T05:07:59.127Z,8.72
2022-08-11T05:08:31.246Z,8.50
2022-08-11T05:09:02.918Z,8.50
2022-08-11T05:09:34.219Z,8.50
2022-08-11T05:09:51.186Z,8.77
2022-08-11T05:10:23.583Z,8.50
2022-08-11T05:10:43.141Z,8.50
2022-08-11T05:11:11.945Z,8.50
2022-08-11T05:11:33.699Z,8.50
2022-08-11T05:12:01.737Z,8.50
2022-08-11T05:12:31.226Z,8.50
2022-08-11T05:13:03.810Z,8.50
2022-08-11T05:13:33.621Z,8.50
2022-08-11T05:13:51.164Z,8.50
2022-08-11T05:14:23.812Z,8.50
2022-08-11T05:14:42.326Z,8.50
2022-08-11T05:15:11.503Z,8.50
2022-08-11T05:15:43.125Z,8.50
2022-08-11T05:16:01.385Z,8.50
2022-08-11T05:16:31.532Z,8.77
2022-08-11T05:17:04.108Z,8.77
2022-08-11T05:17:33.727Z,8.50
2022-08-11T05:17:51.184Z,8.77
2022-08-11T05:18:22.928Z,8.77
2022-08-11T05:18:40.843Z,9.11
2022-08-11T05:19:11.427Z,8.72
2022-08-11T05:19:33.841Z,8.72
2022-08-11T05:19:58.842Z,8.72
2022-08-11T05:20:31.271Z,8.38
2022-08-11T05:21:05.137Z,8.38
2022-08-11T05:21:43.167Z,8.38
2022-08-11T05:22:07.200Z,8.77
2022-08-11T05:22:33.788Z,8.50
2022-08-11T05:22:55.186Z,8.77
2022-08-11T05:23:26.882Z,8.77
2022-08-11T05:23:58.804Z,8.77
2022-08-11T05:24:31.617Z,8.77
2022-08-11T05:25:03.751Z,8.77
2022-08-11T05:26:44.551Z,8.38
2022-08-11T05:26:54.912Z,8.50
2022-08-11T05:27:27.438Z,8.50
2022-08-11T05:27:58.916Z,8.77
2022-08-11T05:28:31.291Z,8.77
2022-08-11T05:29:19.748Z,8.50
2022-08-11T05:29:34.913Z,8.77
2022-08-11T05:30:08.552Z,8.50
2022-08-11T05:30:34.354Z,8.77
2022-08-11T05:30:54.949Z,8.77
2022-08-11T05:31:26.954Z,8.88
2022-08-11T05:31:59.747Z,8.88
2022-08-11T05:32:31.163Z,8.77
2022-08-11T05:33:02.887Z,8.77
2022-08-11T05:33:33.749Z,8.77
2022-08-11T05:33:51.167Z,8.77
2022-08-11T05:34:22.832Z,8.77
2022-08-11T05:34:40.597Z,8.77
2022-08-11T05:35:18.439Z,8.50
2022-08-11T05:36:14.839Z,8.61
2022-08-11T05:36:34.394Z,8.61
2022-08-11T05:37:25.138Z,8.88
2022-08-11T05:37:33.695Z,8.88
2022-08-11T05:37:51.310Z,8.88
2022-08-11T05:38:24.072Z,8.88
2022-08-11T05:38:40.751Z,8.88
2022-08-11T05:39:11.536Z,8.88
2022-08-11T05:39:36.716Z,8.88
2022-08-11T05:39:58.971Z,8.88
2022-08-11T05:40:31.255Z,8.61
2022-08-11T05:41:02.868Z,8.88
2022-08-11T05:41:33.639Z,8.61
2022-08-11T05:41:51.500Z,8.72
2022-08-11T05:42:30.156Z,8.72
2022-08-11T05:42:40.522Z,9.00
2022-08-11T05:43:11.338Z,8.72
2022-08-11T05:43:33.606Z,8.77
2022-08-11T05:44:21.723Z,9.11
2022-08-11T05:44:31.525Z,9.11
2022-08-11T05:45:02.934Z,9.11
2022-08-11T05:46:02.959Z,9.00
2022-08-11T05:46:10.151Z,9.00
2022-08-11T05:46:33.614Z,9.00
2022-08-11T05:46:54.781Z,9.00
2022-08-11T05:47:27.877Z,9.00
2022-08-11T05:47:59.271Z,9.00
2022-08-11T05:48:31.351Z,8.72
2022-08-11T05:49:03.040Z,8.77
2022-08-11T05:49:33.634Z,8.77
2022-08-11T05:49:51.325Z,8.77
2022-08-11T05:50:32.854Z,9.22
2022-08-11T05:50:41.575Z,9.22
2022-08-11T05:51:11.391Z,9.22
2022-08-11T05:51:34.538Z,9.22
2022-08-11T05:52:05.075Z,9.22
2022-08-11T05:52:31.854Z,8.88
2022-08-11T05:53:02.913Z,9.22
2022-08-11T05:53:40.221Z,8.88
2022-08-11T05:53:51.251Z,8.88
2022-08-11T05:54:28.845Z,8.88
2022-08-11T05:54:40.393Z,9.00
2022-08-11T05:55:12.142Z,9.11
2022-08-11T05:55:33.663Z,9.11
2022-08-11T05:56:02.851Z,9.11
2022-08-11T05:56:31.478Z,9.11
2022-08-11T05:57:02.879Z,9.11
2022-08-11T05:57:48.754Z,9.38
2022-08-11T05:58:07.025Z,9.11
2022-08-11T05:58:36.943Z,9.38
2022-08-11T05:58:54.994Z,9.38
2022-08-11T05:59:26.988Z,9.38
2022-08-11T05:59:58.833Z,9.11
2022-08-11T06:00:31.855Z,9.11
2022-08-11T06:01:02.924Z,9.11
2022-08-11T06:01:35.783Z,9.38
2022-08-11T06:02:06.930Z,9.11
2022-08-11T06:02:33.672Z,9.11
2022-08-11T06:02:54.848Z,9.50
2022-08-11T06:03:27.002Z,9.22
2022-08-11T06:03:59.010Z,9.50
2022-08-11T06:04:31.670Z,9.22
2022-08-11T06:05:03.330Z,9.50
2022-08-11T06:05:37.186Z,9.50
2022-08-11T06:05:51.822Z,9.22
2022-08-11T06:06:22.881Z,9.50
2022-08-11T06:06:43.499Z,9.22
2022-08-11T06:07:11.479Z,9.22
2022-08-11T06:07:48.856Z,9.27
2022-08-11T06:07:58.908Z,9.27
2022-08-11T06:08:31.319Z,9.27
2022-08-11T06:09:02.941Z,9.27
2022-08-11T06:09:33.814Z,9.11
2022-08-11T06:10:07.698Z,9.38
2022-08-11T06:10:33.795Z,9.38
2022-08-11T06:10:55.555Z,9.38
2022-08-11T06:11:44.027Z,9.38
2022-08-11T06:11:59.899Z,9.38
2022-08-11T06:12:31.567Z,9.50
2022-08-11T06:13:03.835Z,9.77
2022-08-11T06:13:34.556Z,9.50
2022-08-11T06:14:07.019Z,9.77
2022-08-11T06:14:33.798Z,9.50